aviador You're here:

SARE Decoded Metar

RESISTENCIA in ARGENTINA
Report Time2018-06-25 11:00:00
UTC Time2018-06-25 11:56:47
Flight Rules vfr VFR
Wind210° at 04 kt
W.Decomp.*RWY 21: 3.9 kt HW 0.8 kt RCW
W.Rank210° ranks 25
Current wind is below 210° avg. (6.7)
Visibility9999 m
Phenomena:N/A
Clouds:N/A
Expected CloudBase > 800 ft AGL from Temp-Dew spread
CeilingNone
Temp10°C (ISA -5)
Dew Point08°C (88% RH)
AAT8.1°C
QNH1017 hPa
Density Alt-377 ft
Elevation171 ft
Report Wrong Elevation
Raw Report
SARE 251100Z 21004KT CAVOK 10/08 Q1017=

Extra information for SARE:More info

Metar Taf Metar & Taf Last 4 Metars F.Rules Stats Wind Profile Meteogram Temp Stats Airport Information Weather charts Add Link Nearby VenuesMetar ALERT Operation Metar Decoded Social comments